createdAt,value
2023-01-09T00:00:23.837Z,9.308844
2023-01-09T00:01:23.869Z,9.308802
2023-01-09T00:02:23.793Z,9.308899
2023-01-09T00:03:23.853Z,9.308835
2023-01-09T00:04:23.701Z,9.308946
2023-01-09T00:05:24.557Z,9.309057
2023-01-09T00:06:23.652Z,9.309044
2023-01-09T00:07:23.660Z,9.309030
2023-01-09T00:08:23.616Z,9.309052
2023-01-09T00:09:23.619Z,9.309054
2023-01-09T00:10:23.629Z,9.309068
2023-01-09T00:11:23.636Z,9.309033
2023-01-09T00:12:23.558Z,9.309024
2023-01-09T00:13:23.629Z,9.309034
2023-01-09T00:14:23.587Z,9.309046
2023-01-09T00:15:23.616Z,9.309003
2023-01-09T00:16:23.659Z,9.309011
2023-01-09T00:17:23.575Z,9.309035
2023-01-09T00:18:23.526Z,9.309066
2023-01-09T00:19:23.488Z,9.309061
2023-01-09T00:20:23.478Z,9.309088
2023-01-09T00:21:23.511Z,9.309083
2023-01-09T00:22:23.591Z,9.309085
2023-01-09T00:23:23.506Z,9.309093
2023-01-09T00:24:23.534Z,9.309067
2023-01-09T00:25:24.588Z,9.308994
2023-01-09T00:26:23.554Z,9.308990
2023-01-09T00:27:23.592Z,9.308979
2023-01-09T00:28:23.498Z,9.308979
2023-01-09T00:29:23.516Z,9.309004
2023-01-09T00:30:23.570Z,9.308996
2023-01-09T00:31:23.468Z,9.308989
2023-01-09T00:32:23.490Z,9.309030
2023-01-09T00:33:23.501Z,9.308955
2023-01-09T00:34:23.492Z,9.308887
2023-01-09T00:35:23.492Z,9.308937
2023-01-09T00:36:23.473Z,9.308956
2023-01-09T00:37:23.510Z,9.308750
2023-01-09T00:38:24.521Z,9.308888
2023-01-09T00:39:23.522Z,9.308920
2023-01-09T00:40:23.487Z,9.309211
2023-01-09T00:41:23.489Z,9.309062
2023-01-09T00:42:23.450Z,9.309096
2023-01-09T00:43:23.813Z,9.309027
2023-01-09T00:44:23.445Z,9.308969
2023-01-09T00:45:24.591Z,9.308937
2023-01-09T00:46:24.205Z,9.308933
2023-01-09T00:47:24.682Z,9.308970
2023-01-09T00:48:24.299Z,9.309018
2023-01-09T00:49:24.750Z,9.309051
2023-01-09T00:50:24.371Z,9.309022
2023-01-09T00:51:23.864Z,9.308951
2023-01-09T00:52:23.897Z,9.308799
2023-01-09T00:53:24.517Z,9.308738
2023-01-09T00:54:23.956Z,9.308734
2023-01-09T00:55:23.857Z,9.308797
2023-01-09T00:59:54.577Z,9.308924
2023-01-09T01:00:54.661Z,9.308940
2023-01-09T01:01:54.789Z,9.308800
2023-01-09T01:02:54.683Z,9.309007
2023-01-09T01:03:54.561Z,9.308972
2023-01-09T01:04:54.639Z,9.308863
2023-01-09T01:05:54.534Z,9.308956
2023-01-09T01:06:54.577Z,9.309015
2023-01-09T01:07:54.497Z,9.308999
2023-01-09T01:08:54.645Z,9.309085
2023-01-09T01:09:54.459Z,9.309064
2023-01-09T01:10:54.905Z,9.309001
2023-01-09T01:11:54.577Z,9.308890
2023-01-09T01:12:54.506Z,9.309086
2023-01-09T01:13:54.464Z,9.309089
2023-01-09T01:14:54.401Z,9.309106
2023-01-09T01:15:54.424Z,9.309101
2023-01-09T01:16:54.424Z,9.309045
2023-01-09T01:17:54.408Z,9.308977
2023-01-09T01:18:55.441Z,9.308984
2023-01-09T01:19:54.563Z,9.309002
2023-01-09T01:20:54.576Z,9.309031
2023-01-09T01:21:54.640Z,9.309035
2023-01-09T01:22:54.728Z,9.309014
2023-01-09T01:23:54.486Z,9.309055
2023-01-09T01:24:54.567Z,9.309022
2023-01-09T01:25:55.142Z,9.308989
2023-01-09T01:26:54.857Z,9.308953
2023-01-09T01:27:54.907Z,9.308936
2023-01-09T01:28:54.453Z,9.308975
2023-01-09T01:29:54.653Z,9.308898
2023-01-09T01:30:54.399Z,9.308985
2023-01-09T01:31:54.340Z,9.309004
2023-01-09T01:32:54.735Z,9.308940
2023-01-09T01:33:54.374Z,9.308887
2023-01-09T01:34:54.481Z,9.308766
2023-01-09T01:35:54.418Z,9.308854
2023-01-09T01:36:54.421Z,9.308959
2023-01-09T01:37:54.432Z,9.309019
2023-01-09T01:38:54.415Z,9.308987
2023-01-09T01:39:54.418Z,9.309016
2023-01-09T01:40:54.449Z,9.308986
2023-01-09T01:41:54.332Z,9.309067
2023-01-09T01:42:54.328Z,9.309093
2023-01-09T01:43:55.299Z,9.309070
2023-01-09T01:44:54.321Z,9.309062
2023-01-09T01:45:54.342Z,9.309076
2023-01-09T01:46:54.455Z,9.309039
2023-01-09T01:47:54.459Z,9.309067
2023-01-09T01:48:54.641Z,9.309080
2023-01-09T01:49:54.644Z,9.309046
2023-01-09T01:50:55.734Z,9.309016
2023-01-09T01:51:54.943Z,9.309040
2023-01-09T02:22:49.798Z,9.309099
2023-01-09T02:23:49.716Z,9.309084
2023-01-09T02:24:49.764Z,9.309062
2023-01-09T02:25:50.902Z,9.309039
2023-01-09T02:26:49.810Z,9.309075
2023-01-09T02:27:49.892Z,9.309025
2023-01-09T02:28:50.007Z,9.309069
2023-01-09T04:15:11.780Z,9.308974
2023-01-09T04:18:52.288Z,9.309210
2023-01-09T04:23:22.085Z,9.308990
2023-01-09T04:27:41.284Z,9.309131
2023-01-09T04:29:14.631Z,9.309265
2023-01-09T04:29:40.932Z,9.309243
2023-01-09T04:30:41.047Z,9.309378
2023-01-09T04:34:40.424Z,9.309295
2023-01-09T04:35:40.372Z,9.309072
2023-01-09T04:36:40.379Z,9.309005
2023-01-09T04:37:40.433Z,9.309119
2023-01-09T04:38:40.326Z,9.309151
2023-01-09T04:39:40.289Z,9.309088
2023-01-09T04:40:40.384Z,9.309035
2023-01-09T04:41:40.722Z,9.309300
2023-01-09T04:42:40.303Z,9.309279
2023-01-09T04:43:40.505Z,9.309554
2023-01-09T04:44:40.580Z,9.309049
2023-01-09T04:45:40.300Z,9.308989
2023-01-09T04:46:40.316Z,9.309000
2023-01-09T04:47:40.323Z,9.309117
2023-01-09T04:48:40.501Z,9.308999
2023-01-09T04:49:40.274Z,9.308957
2023-01-09T04:50:40.299Z,9.309057
2023-01-09T04:52:12.270Z,9.308958
2023-01-09T04:52:40.156Z,9.309106
2023-01-09T04:53:40.199Z,9.309147
2023-01-09T04:54:40.252Z,9.309253
2023-01-09T04:55:40.382Z,9.308986
2023-01-09T04:56:40.167Z,9.308939
2023-01-09T04:57:40.241Z,9.308882
2023-01-09T04:58:40.216Z,9.309173
2023-01-09T04:59:40.204Z,9.309146
2023-01-09T05:00:40.200Z,9.309201
2023-01-09T05:01:40.269Z,9.309076
2023-01-09T05:02:40.101Z,9.309201
2023-01-09T05:03:40.119Z,9.309258
2023-01-09T05:04:40.216Z,9.309184
2023-01-09T05:05:40.211Z,9.309287
2023-01-09T05:06:40.094Z,9.309306
2023-01-09T05:07:40.124Z,9.308992
2023-01-09T05:08:40.235Z,9.308892
2023-01-09T05:09:39.996Z,9.309040
2023-01-09T05:10:40.085Z,9.309030
2023-01-09T05:11:40.215Z,9.308854
2023-01-09T05:12:40.083Z,9.308968
2023-01-09T05:13:40.159Z,9.308899
2023-01-09T05:14:40.014Z,9.308816
2023-01-09T05:15:40.033Z,9.308969
2023-01-09T05:16:40.175Z,9.308904
2023-01-09T05:17:40.001Z,9.308969
2023-01-09T05:18:39.998Z,9.309010
2023-01-09T05:19:41.133Z,9.308947
2023-01-09T05:20:39.952Z,9.308944
2023-01-09T05:21:39.936Z,9.309036
2023-01-09T05:22:39.924Z,9.309106
2023-01-09T05:23:39.888Z,9.309135
2023-01-09T05:24:39.886Z,9.309156
2023-01-09T05:25:39.893Z,9.308928
2023-01-09T05:26:39.896Z,9.309032
2023-01-09T05:27:40.045Z,9.309101
2023-01-09T05:28:39.906Z,9.309019
2023-01-09T05:29:39.868Z,9.308984
2023-01-09T05:30:39.881Z,9.309048
2023-01-09T05:31:39.909Z,9.309031
2023-01-09T05:32:39.879Z,9.309098
2023-01-09T05:33:39.977Z,9.309079
2023-01-09T05:34:40.045Z,9.309066
2023-01-09T05:35:39.930Z,9.309157
2023-01-09T05:36:40.116Z,9.309162
2023-01-09T05:37:39.981Z,9.309203
2023-01-09T05:38:40.060Z,9.309136
2023-01-09T05:39:39.874Z,9.309144
2023-01-09T05:40:40.695Z,9.309140
2023-01-09T05:41:40.919Z,9.309039
2023-01-09T05:42:39.928Z,9.309084
2023-01-09T05:43:39.871Z,9.309015
2023-01-09T05:44:39.954Z,9.309078
2023-01-09T05:45:39.843Z,9.308968
2023-01-09T05:46:39.853Z,9.309018
2023-01-09T05:47:39.778Z,9.309005
2023-01-09T05:48:39.746Z,9.309025
2023-01-09T05:49:39.860Z,9.309015
2023-01-09T05:50:40.397Z,9.309085
2023-01-09T05:51:39.785Z,9.309077
2023-01-09T05:52:39.769Z,9.309109
2023-01-09T05:53:39.813Z,9.309085
2023-01-09T05:54:39.728Z,9.309059
2023-01-09T05:55:39.728Z,9.309075
2023-01-09T05:56:39.811Z,9.308995
2023-01-09T05:57:39.715Z,9.308904
2023-01-09T05:58:39.711Z,9.309010
2023-01-09T05:59:39.691Z,9.309058
2023-01-09T06:00:40.080Z,9.309001
2023-01-09T06:01:39.714Z,9.308847
2023-01-09T06:02:39.763Z,9.309047
2023-01-09T06:03:39.691Z,9.309068
2023-01-09T06:04:39.679Z,9.309086
2023-01-09T06:05:39.703Z,9.309109
2023-01-09T06:06:39.802Z,9.309094
2023-01-09T06:07:39.657Z,9.309098
2023-01-09T06:08:39.678Z,9.309090
2023-01-09T06:09:39.740Z,9.309047
2023-01-09T06:10:39.676Z,9.309128
2023-01-09T06:11:39.726Z,9.309081
2023-01-09T06:12:39.655Z,9.309073
2023-01-09T06:13:39.608Z,9.309077
2023-01-09T06:14:39.712Z,9.309139
2023-01-09T06:15:39.603Z,9.309052
2023-01-09T06:16:39.702Z,9.309116
2023-01-09T06:17:39.613Z,9.309165
2023-01-09T06:18:39.603Z,9.309093
2023-01-09T06:19:39.611Z,9.309058
2023-01-09T06:20:39.563Z,9.309039
2023-01-09T06:21:39.525Z,9.309049
2023-01-09T06:22:39.563Z,9.309098
2023-01-09T06:23:39.570Z,9.309128
2023-01-09T06:24:39.588Z,9.309116
2023-01-09T06:25:40.592Z,9.309130
2023-01-09T06:26:39.451Z,9.309148
2023-01-09T06:27:39.454Z,9.309129
2023-01-09T06:28:39.478Z,9.309142
2023-01-09T06:29:39.389Z,9.309096
2023-01-09T06:30:39.459Z,9.309105
2023-01-09T06:31:39.368Z,9.309069
2023-01-09T06:32:39.390Z,9.309092
2023-01-09T06:33:39.381Z,9.309094
2023-01-09T06:34:39.415Z,9.309114
2023-01-09T06:35:39.392Z,9.309111
2023-01-09T06:36:39.381Z,9.309112
2023-01-09T06:37:39.428Z,9.309139
2023-01-09T06:38:39.395Z,9.309130
2023-01-09T06:39:39.370Z,9.309136
2023-01-09T06:40:39.393Z,9.309125
2023-01-09T06:41:39.489Z,9.308949
2023-01-09T06:42:39.413Z,9.309031
2023-01-09T06:44:11.714Z,9.309094
2023-01-09T06:44:39.611Z,9.309045
2023-01-09T06:45:39.601Z,9.309151
2023-01-09T06:46:39.484Z,9.309105
2023-01-09T06:47:39.366Z,9.309117
2023-01-09T06:48:39.338Z,9.309126
2023-01-09T06:49:39.350Z,9.309091
2023-01-09T06:50:39.430Z,9.309006
2023-01-09T06:52:11.355Z,9.309104
2023-01-09T06:52:39.452Z,9.309096
2023-01-09T06:53:39.529Z,9.309051
2023-01-09T06:54:39.370Z,9.309064
2023-01-09T06:55:39.466Z,9.309065
2023-01-09T06:56:39.389Z,9.309024
2023-01-09T06:57:39.317Z,9.309075
2023-01-09T06:58:39.349Z,9.309030
2023-01-09T06:59:39.320Z,9.309068
2023-01-09T07:00:39.425Z,9.309059
2023-01-09T07:01:39.857Z,9.309036
2023-01-09T07:02:39.260Z,9.309030
2023-01-09T07:03:39.321Z,9.309022
2023-01-09T07:04:39.215Z,9.309046
2023-01-09T07:05:39.381Z,9.309062
2023-01-09T07:06:39.280Z,9.309112
2023-01-09T07:07:39.227Z,9.309152
2023-01-09T07:08:39.217Z,9.309052
2023-01-09T07:09:39.118Z,9.309078
2023-01-09T07:10:39.228Z,9.308985
2023-01-09T07:11:39.191Z,9.309026
2023-01-09T07:12:39.337Z,9.309058
2023-01-09T07:13:39.197Z,9.309238
2023-01-09T07:14:39.186Z,9.309065
2023-01-09T07:15:39.215Z,9.309026
2023-01-09T07:16:39.204Z,9.309054
2023-01-09T07:17:39.276Z,9.309192
2023-01-09T07:18:39.179Z,9.309090
2023-01-09T07:19:39.193Z,9.309052
2023-01-09T07:20:39.181Z,9.309204
2023-01-09T07:21:39.211Z,9.309091
2023-01-09T07:22:40.153Z,9.308979
2023-01-09T07:23:39.281Z,9.308984
2023-01-09T07:24:39.074Z,9.308998
2023-01-09T07:25:39.024Z,9.308947
2023-01-09T07:26:38.981Z,9.309080
2023-01-09T07:30:37.499Z,9.309053
2023-01-09T07:31:37.533Z,9.309097
2023-01-09T07:33:04.218Z,9.308578
2023-01-09T07:33:37.392Z,9.308891
2023-01-09T07:34:37.540Z,9.309084
2023-01-09T07:35:37.537Z,9.309037
2023-01-09T07:36:37.554Z,9.309019
2023-01-09T07:37:37.483Z,9.308962
2023-01-09T07:38:37.657Z,9.309036
2023-01-09T07:39:38.491Z,9.309013
2023-01-09T10:35:16.348Z,9.308747
2023-01-09T10:36:15.169Z,9.308723
2023-01-09T10:37:15.249Z,9.309143
2023-01-09T10:38:15.265Z,9.309020
2023-01-09T10:39:15.240Z,9.308867
2023-01-09T10:40:15.412Z,9.309098
2023-01-09T10:41:15.224Z,9.309142
2023-01-09T10:42:15.259Z,9.309095
2023-01-09T10:43:15.133Z,9.309228
2023-01-09T10:44:15.048Z,9.309294
2023-01-09T10:45:15.091Z,9.309029
2023-01-09T10:46:15.360Z,9.309044
2023-01-09T10:47:15.425Z,9.309070
2023-01-09T10:48:15.351Z,9.309164
2023-01-09T10:49:15.174Z,9.309147
2023-01-09T10:50:15.253Z,9.309121
2023-01-09T10:51:15.785Z,9.309114
2023-01-09T10:55:35.912Z,9.309126
2023-01-09T10:56:35.812Z,9.309114
2023-01-09T10:57:35.916Z,9.309121
2023-01-09T10:58:36.223Z,9.309176
2023-01-09T10:59:35.994Z,9.309043
2023-01-09T11:00:35.889Z,9.309132
2023-01-09T11:01:36.345Z,9.309065
2023-01-09T11:02:35.854Z,9.309037
2023-01-09T11:03:36.417Z,9.309126
2023-01-09T11:04:36.015Z,9.309114
2023-01-09T11:05:36.209Z,9.309088
2023-01-09T11:06:36.775Z,9.309133
2023-01-09T11:28:29.924Z,9.309083
2023-01-09T11:29:29.790Z,9.309072
2023-01-09T11:30:29.787Z,9.309056
2023-01-09T11:31:29.924Z,9.309117
2023-01-09T11:32:30.190Z,9.309129
2023-01-09T11:33:29.832Z,9.309202
2023-01-09T11:34:29.882Z,9.309012
2023-01-09T11:35:31.751Z,9.309049
2023-01-09T11:36:30.495Z,9.309113
2023-01-09T11:37:30.019Z,9.309186
2023-01-09T11:38:29.835Z,9.309141
2023-01-09T11:39:29.817Z,9.309209
2023-01-09T11:40:29.775Z,9.309181
2023-01-09T11:41:29.842Z,9.309177
2023-01-09T11:42:29.828Z,9.309126
2023-01-09T11:43:29.791Z,9.309110
2023-01-09T11:44:29.736Z,9.309099
2023-01-09T11:45:29.768Z,9.309072
2023-01-09T11:46:29.848Z,9.309031
2023-01-09T11:47:29.793Z,9.309034
2023-01-09T11:48:29.765Z,9.309032
2023-01-09T11:49:29.799Z,9.309015
2023-01-09T11:50:29.775Z,9.309081
2023-01-09T11:51:29.791Z,9.309102
2023-01-09T11:52:29.751Z,9.309101
2023-01-09T11:53:29.767Z,9.309021
2023-01-09T11:54:30.745Z,9.309046
2023-01-09T11:55:41.996Z,9.309045
2023-01-09T11:56:31.679Z,9.309094
2023-01-09T11:57:29.693Z,9.309078
2023-01-09T11:58:29.652Z,9.309043
2023-01-09T11:59:29.784Z,9.309052
2023-01-09T12:00:29.642Z,9.309000
2023-01-09T12:01:45.945Z,9.309095
2023-01-09T12:02:30.751Z,9.309044
2023-01-09T12:03:29.730Z,9.309068
2023-01-09T12:04:29.708Z,9.309100
2023-01-09T12:05:29.776Z,9.309130
2023-01-09T12:06:29.670Z,9.309108
2023-01-09T12:07:29.631Z,9.309064
2023-01-09T12:08:29.753Z,9.309070
2023-01-09T12:09:29.613Z,9.309016
2023-01-09T12:10:29.732Z,9.309043
2023-01-09T12:11:29.616Z,9.309068
2023-01-09T12:12:29.674Z,9.309136
2023-01-09T12:13:29.518Z,9.309076
2023-01-09T12:14:29.557Z,9.309058
2023-01-09T12:15:29.549Z,9.309113
2023-01-09T12:16:29.512Z,9.308994
2023-01-09T12:17:29.476Z,9.308996
2023-01-09T12:18:29.426Z,9.309031
2023-01-09T12:19:29.461Z,9.309098
2023-01-09T12:20:29.437Z,9.309035
2023-01-09T12:21:29.546Z,9.309019
2023-01-09T12:22:29.383Z,9.309022
2023-01-09T12:23:29.478Z,9.309088
2023-01-09T12:24:29.370Z,9.309070
2023-01-09T12:25:29.386Z,9.309129
2023-01-09T12:26:29.608Z,9.309106
2023-01-09T12:27:29.536Z,9.309093
2023-01-09T12:28:29.379Z,9.309109
2023-01-09T12:29:29.591Z,9.309135
2023-01-09T12:30:29.510Z,9.309135
2023-01-09T12:31:29.570Z,9.309095
2023-01-09T12:32:29.811Z,9.309152
2023-01-09T12:33:29.517Z,9.309196
2023-01-09T12:34:29.462Z,9.309161
2023-01-09T12:35:29.367Z,9.309116
2023-01-09T12:36:29.428Z,9.309167
2023-01-09T12:37:29.366Z,9.309150
2023-01-09T12:38:29.550Z,9.309087
2023-01-09T12:39:29.351Z,9.309053
2023-01-09T12:40:29.481Z,9.309054
2023-01-09T12:41:29.428Z,9.309081
2023-01-09T12:42:29.372Z,9.309071
2023-01-09T12:43:29.456Z,9.309134
2023-01-09T12:44:35.594Z,9.309174
2023-01-09T12:45:31.334Z,9.309108
2023-01-09T12:46:29.372Z,9.309092
2023-01-09T12:47:29.298Z,9.309076
2023-01-09T12:48:29.297Z,9.309136
2023-01-09T12:49:30.393Z,9.309222
2023-01-09T12:50:29.351Z,9.309202
2023-01-09T12:51:29.329Z,9.309164
2023-01-09T12:52:29.262Z,9.309074
2023-01-09T12:53:29.320Z,9.309119
2023-01-09T12:54:29.318Z,9.309130
2023-01-09T12:55:29.203Z,9.309165
2023-01-09T12:56:29.336Z,9.309091
2023-01-09T12:57:29.301Z,9.309081
2023-01-09T12:58:29.193Z,9.309096
2023-01-09T12:59:29.252Z,9.309073
2023-01-09T13:00:29.254Z,9.309139
2023-01-09T13:01:29.414Z,9.309176
2023-01-09T13:02:29.239Z,9.309156
2023-01-09T13:03:29.290Z,9.309127
2023-01-09T13:04:29.163Z,9.309154
2023-01-09T13:05:29.236Z,9.309105
2023-01-09T13:06:29.212Z,9.309134
2023-01-09T13:07:29.179Z,9.309172
2023-01-09T13:08:29.185Z,9.309134
2023-01-09T13:09:29.149Z,9.309122
2023-01-09T13:10:29.181Z,9.309129
2023-01-09T13:11:29.182Z,9.309033
2023-01-09T13:12:29.141Z,9.309024
2023-01-09T13:13:29.137Z,9.309107
2023-01-09T13:14:29.123Z,9.309042
2023-01-09T13:15:29.122Z,9.309087
2023-01-09T13:16:29.188Z,9.309067
2023-01-09T13:17:29.043Z,9.309059
2023-01-09T13:18:28.985Z,9.309082
2023-01-09T13:19:29.033Z,9.309106
2023-01-09T13:20:29.015Z,9.309190
2023-01-09T13:21:28.991Z,9.309135
2023-01-09T13:22:28.996Z,9.309216
2023-01-09T13:23:28.982Z,9.309109
2023-01-09T13:24:28.981Z,9.309143
2023-01-09T13:25:28.992Z,9.309185
2023-01-09T13:26:28.932Z,9.309160
2023-01-09T13:27:28.962Z,9.309195
2023-01-09T13:28:29.008Z,9.309114
2023-01-09T13:29:28.926Z,9.309103
2023-01-09T13:30:28.905Z,9.309099
2023-01-09T13:31:28.925Z,9.309091
2023-01-09T13:32:28.936Z,9.309105
2023-01-09T13:33:29.255Z,9.309169
2023-01-09T13:34:28.897Z,9.309112
2023-01-09T13:35:29.041Z,9.309100
2023-01-09T13:36:28.972Z,9.309140
2023-01-09T13:37:28.958Z,9.309161
2023-01-09T13:38:29.077Z,9.309073
2023-01-09T13:39:28.894Z,9.309091
2023-01-09T13:40:28.921Z,9.309159
2023-01-09T13:41:28.940Z,9.309149
2023-01-09T13:42:28.937Z,9.309030
2023-01-09T13:43:28.910Z,9.309001
2023-01-09T13:44:29.048Z,9.309102
2023-01-09T13:45:28.998Z,9.309317
2023-01-09T13:46:28.866Z,9.309079
2023-01-09T13:47:28.957Z,9.309068
2023-01-09T13:48:28.917Z,9.309086
2023-01-09T13:49:28.913Z,9.308980
2023-01-09T13:50:28.916Z,9.308982
2023-01-09T13:51:28.867Z,9.308926
2023-01-09T13:52:28.859Z,9.308991
2023-01-09T13:53:28.899Z,9.309054
2023-01-09T13:54:28.830Z,9.309072
2023-01-09T13:55:28.888Z,9.309105
2023-01-09T13:56:28.765Z,9.309111
2023-01-09T13:57:28.809Z,9.309151
2023-01-09T13:58:28.816Z,9.309123
2023-01-09T13:59:28.830Z,9.308979
2023-01-09T14:00:28.931Z,9.308978
2023-01-09T14:01:28.799Z,9.309082
2023-01-09T14:02:28.813Z,9.309103
2023-01-09T14:03:28.727Z,9.309068
2023-01-09T14:04:28.859Z,9.309004
2023-01-09T14:05:28.743Z,9.309089
2023-01-09T14:06:29.787Z,9.309058
2023-01-09T14:07:28.729Z,9.309033
2023-01-09T14:08:28.797Z,9.309092
2023-01-09T14:09:28.730Z,9.309027
2023-01-09T14:10:28.850Z,9.308991
2023-01-09T14:11:28.750Z,9.309049
2023-01-09T14:12:28.744Z,9.309070
2023-01-09T14:13:28.717Z,9.309128
2023-01-09T14:14:28.631Z,9.309048
2023-01-09T14:15:28.765Z,9.309029
2023-01-09T14:16:28.628Z,9.309075
2023-01-09T14:17:28.669Z,9.309114
2023-01-09T14:18:28.534Z,9.309064
2023-01-09T14:19:28.580Z,9.309073
2023-01-09T14:20:28.567Z,9.309159
2023-01-09T14:21:28.612Z,9.309085
2023-01-09T14:22:28.658Z,9.309050
2023-01-09T14:23:46.003Z,9.309082
2023-01-09T14:24:30.547Z,9.309137
2023-01-09T14:25:28.572Z,9.309155
2023-01-09T14:26:28.572Z,9.309011
2023-01-09T14:27:28.680Z,9.309007
2023-01-09T14:28:28.595Z,9.309022
2023-01-09T14:29:28.668Z,9.309115
2023-01-09T14:30:28.500Z,9.309153
2023-01-09T14:31:28.799Z,9.309152
2023-01-09T14:32:28.463Z,9.309154
2023-01-09T14:33:28.820Z,9.309135
2023-01-09T14:34:32.118Z,9.309048
2023-01-09T14:35:29.602Z,9.309128
2023-01-09T14:36:28.529Z,9.309108
2023-01-09T14:37:28.548Z,9.309078
2023-01-09T14:38:28.583Z,9.309041
2023-01-09T14:39:28.915Z,9.309085
2023-01-09T14:40:28.423Z,9.309181
2023-01-09T14:41:28.440Z,9.309166
2023-01-09T14:42:28.427Z,9.309108
2023-01-09T14:43:28.428Z,9.309113
2023-01-09T14:44:28.405Z,9.309063
2023-01-09T14:45:28.520Z,9.309066
2023-01-09T14:46:28.361Z,9.309130
2023-01-09T14:47:28.380Z,9.309267
2023-01-09T14:48:28.370Z,9.309302
2023-01-09T14:49:28.473Z,9.309157
2023-01-09T14:50:28.329Z,9.309163
2023-01-09T14:51:28.348Z,9.309141
2023-01-09T14:52:28.363Z,9.309067
2023-01-09T14:53:28.336Z,9.309049
2023-01-09T14:54:28.455Z,9.309080
2023-01-09T14:55:28.382Z,9.309052
2023-01-09T14:56:28.401Z,9.309100
2023-01-09T14:57:28.438Z,9.309095
2023-01-09T14:58:28.401Z,9.309085
2023-01-09T14:59:28.420Z,9.309020
2023-01-09T15:00:28.489Z,9.309104
2023-01-09T15:01:28.425Z,9.309144
2023-01-09T15:02:28.416Z,9.309118
2023-01-09T15:03:28.320Z,9.309068
2023-01-09T15:04:28.332Z,9.309083
2023-01-09T15:05:28.336Z,9.309096
2023-01-09T15:06:28.347Z,9.309070
2023-01-09T15:07:29.338Z,9.309053
2023-01-09T15:08:28.328Z,9.309015
2023-01-09T15:09:28.424Z,9.309042
2023-01-09T15:10:28.312Z,9.309000
2023-01-09T15:11:28.340Z,9.309117
2023-01-09T15:12:28.345Z,9.309239
2023-01-09T15:13:28.302Z,9.309173
2023-01-09T15:14:28.284Z,9.309250
2023-01-09T15:15:28.287Z,9.309213
2023-01-09T15:16:28.294Z,9.309173
2023-01-09T15:17:28.380Z,9.309199
2023-01-09T15:18:28.291Z,9.309175
2023-01-09T15:19:28.252Z,9.309161
2023-01-09T15:20:28.268Z,9.309107
2023-01-09T15:21:28.193Z,9.309083
2023-01-09T15:22:28.224Z,9.309062
2023-01-09T15:23:28.228Z,9.309067
2023-01-09T15:24:28.292Z,9.309114
2023-01-09T15:25:38.051Z,9.309050
2023-01-09T15:26:30.176Z,9.309140
2023-01-09T15:27:28.194Z,9.309104
2023-01-09T15:28:28.185Z,9.309185
2023-01-09T15:29:28.186Z,9.309172
2023-01-09T15:30:28.289Z,9.309022
2023-01-09T15:31:28.162Z,9.308993
2023-01-09T15:32:28.139Z,9.308990
2023-01-09T15:33:28.230Z,9.309115
2023-01-09T15:34:28.165Z,9.309060
2023-01-09T15:35:28.101Z,9.309030
2023-01-09T15:36:28.163Z,9.309059
2023-01-09T15:37:28.486Z,9.309269
2023-01-09T15:38:28.136Z,9.309153
2023-01-09T15:39:28.183Z,9.309248
2023-01-09T15:40:28.164Z,9.309158
2023-01-09T15:41:28.089Z,9.309077
2023-01-09T15:42:28.039Z,9.309137
2023-01-09T15:43:28.188Z,9.309168
2023-01-09T15:44:28.222Z,9.309075
2023-01-09T15:45:28.132Z,9.309129
2023-01-09T15:46:28.216Z,9.309174
2023-01-09T15:47:28.068Z,9.309259
2023-01-09T15:48:28.091Z,9.309261
2023-01-09T15:49:28.052Z,9.309139
2023-01-09T15:50:28.041Z,9.309169
2023-01-09T15:51:28.128Z,9.309076
2023-01-09T15:52:28.097Z,9.309052
2023-01-09T15:53:28.099Z,9.309075
2023-01-09T15:54:27.953Z,9.309170
2023-01-09T15:55:27.950Z,9.309157
2023-01-09T15:56:27.896Z,9.309145
2023-01-09T15:57:27.901Z,9.309074
2023-01-09T15:58:27.911Z,9.309051
2023-01-09T15:59:27.853Z,9.309055
2023-01-09T16:00:27.899Z,9.309071
2023-01-09T16:01:27.896Z,9.309094
2023-01-09T16:02:27.877Z,9.309113
2023-01-09T16:03:28.855Z,9.309054
2023-01-09T16:04:27.814Z,9.309038
2023-01-09T16:05:27.780Z,9.309027
2023-01-09T16:06:28.265Z,9.309098
2023-01-09T16:07:27.837Z,9.309127
2023-01-09T16:08:27.772Z,9.309142
2023-01-09T16:09:27.868Z,9.309106
2023-01-09T16:10:27.753Z,9.309101
2023-01-09T16:11:27.889Z,9.309145
2023-01-09T16:12:27.963Z,9.309159
2023-01-09T16:13:27.850Z,9.309142
2023-01-09T16:14:27.810Z,9.309126
2023-01-09T16:15:27.807Z,9.309074
2023-01-09T16:16:27.881Z,9.309081
2023-01-09T16:17:27.819Z,9.309131
2023-01-09T16:18:27.795Z,9.309110
2023-01-09T16:19:27.765Z,9.309100
2023-01-09T16:20:27.727Z,9.309134
2023-01-09T16:21:28.783Z,9.309095
2023-01-09T16:22:27.732Z,9.309125
2023-01-09T16:23:27.964Z,9.309182
2023-01-09T16:24:27.765Z,9.309206
2023-01-09T16:25:27.820Z,9.309140
2023-01-09T16:26:27.753Z,9.309123
2023-01-09T16:27:27.830Z,9.309085
2023-01-09T16:28:28.465Z,9.309097
2023-01-09T16:29:27.782Z,9.309082
2023-01-09T16:30:27.723Z,9.309067
2023-01-09T16:31:27.740Z,9.309085
2023-01-09T16:32:27.799Z,9.309082
2023-01-09T16:33:27.776Z,9.309118
2023-01-09T16:34:28.754Z,9.309079
2023-01-09T16:35:27.836Z,9.309098
2023-01-09T16:36:27.657Z,9.308971
2023-01-09T16:37:28.008Z,9.309051
2023-01-09T16:38:27.647Z,9.308964
2023-01-09T16:39:28.091Z,9.308990
2023-01-09T16:40:27.747Z,9.309080
2023-01-09T16:41:27.959Z,9.309045
2023-01-09T16:42:28.310Z,9.309217
2023-01-09T16:43:28.282Z,9.309098
2023-01-09T16:44:27.752Z,9.309121
2023-01-09T16:45:28.051Z,9.309131
2023-01-09T16:46:28.405Z,9.309075
2023-01-09T16:47:28.278Z,9.308957
2023-01-09T16:48:28.025Z,9.309010
2023-01-09T16:49:27.681Z,9.308900
2023-01-09T16:50:28.506Z,9.309036
2023-01-09T16:51:27.675Z,9.309186
2023-01-09T16:52:28.085Z,9.309111
2023-01-09T16:53:27.968Z,9.309034
2023-01-09T16:54:28.159Z,9.309089
2023-01-09T16:55:27.863Z,9.309056
2023-01-09T16:56:28.047Z,9.309045
2023-01-09T16:57:27.879Z,9.309055
2023-01-09T16:58:27.633Z,9.308986
2023-01-09T16:59:27.493Z,9.308866
2023-01-09T17:00:27.585Z,9.308937
2023-01-09T17:01:27.603Z,9.308863
2023-01-09T17:02:27.590Z,9.308919
2023-01-09T17:03:27.871Z,9.309028
2023-01-09T17:04:27.943Z,9.309123
2023-01-09T17:05:28.164Z,9.309010
2023-01-09T17:06:27.832Z,9.309093
2023-01-09T17:07:28.144Z,9.309045
2023-01-09T17:08:27.739Z,9.308910
2023-01-09T17:09:27.870Z,9.308874
2023-01-09T17:10:28.163Z,9.308965
2023-01-09T17:11:28.353Z,9.308907
2023-01-09T17:12:28.006Z,9.309028
2023-01-09T17:13:28.090Z,9.309022
2023-01-09T17:14:28.057Z,9.308982
2023-01-09T17:15:28.128Z,9.309027
2023-01-09T17:16:27.826Z,9.309011
2023-01-09T17:17:28.404Z,9.309078
2023-01-09T17:18:27.598Z,9.308977
2023-01-09T17:19:27.712Z,9.308972
2023-01-09T17:20:27.435Z,9.309010
2023-01-09T17:21:27.685Z,9.309007
2023-01-09T17:22:27.676Z,9.308999
2023-01-09T17:23:27.381Z,9.309022
2023-01-09T17:24:27.255Z,9.309090
2023-01-09T17:25:27.482Z,9.309117
2023-01-09T17:26:27.439Z,9.309035
2023-01-09T17:27:27.352Z,9.309038
2023-01-09T17:28:27.327Z,9.308995
2023-01-09T17:29:28.290Z,9.308937
2023-01-09T17:30:27.212Z,9.308815
2023-01-09T17:31:27.418Z,9.308825
2023-01-09T17:32:27.476Z,9.308947
2023-01-09T17:33:27.266Z,9.308984
2023-01-09T17:34:27.325Z,9.309016
2023-01-09T17:35:27.402Z,9.308969
2023-01-09T17:36:27.354Z,9.309019
2023-01-09T17:37:27.579Z,9.309099